Time,TemperatureF,DewpointF,PressureIn,WindDirection,WindDirectionDegrees,WindSpeedMPH,WindSpeedGustMPH,Humidity,HourlyPrecipIn,Conditions,Clouds,dailyrainin,SoftwareType,DateUTC
2013-11-12 00:01:00,42.6,38.4,30.16,SSE,168,0.0,0.0,85,0.00,,SKC,0.00,VWS V13.00,2013-11-12 06:01:00,
2013-11-12 00:06:00,42.6,37.8,30.16,SSE,168,0.0,0.0,83,0.00,,SKC,0.00,VWS V13.00,2013-11-12 06:06:00,
2013-11-12 00:11:00,42.6,36.2,30.16,SSE,168,0.0,0.0,78,0.00,,SKC,0.00,VWS V13.00,2013-11-12 06:11:00,
2013-11-12 00:16:00,42.8,36.4,30.16,SSE,168,0.0,0.0,78,0.00,,SKC,0.00,VWS V13.00,2013-11-12 06:16:00,
2013-11-12 00:21:00,42.9,36.8,30.16,SSE,168,0.0,0.0,79,0.00,,SKC,0.00,VWS V13.00,2013-11-12 06:21:00,
2013-11-12 00:26:00,42.9,38.4,30.15,SSE,168,0.0,0.0,84,0.00,,SKC,0.00,VWS V13.00,2013-11-12 06:26:00,
2013-11-12 00:31:00,42.7,37.9,30.16,SSE,168,0.0,0.0,83,0.00,,SKC,0.00,VWS V13.00,2013-11-12 06:31:00,
2013-11-12 00:36:00,42.5,36.8,30.15,SSE,168,0.0,0.0,80,0.00,,SKC,0.00,VWS V13.00,2013-11-12 06:36:00,
2013-11-12 00:40:00,42.7,37.3,30.15,SSE,168,0.0,0.0,81,0.00,,SKC,0.00,VWS V13.00,2013-11-12 06:40:00,
2013-11-12 00:45:00,43.0,37.9,30.15,SSE,168,0.0,0.0,82,0.00,,SKC,0.00,VWS V13.00,2013-11-12 06:45:00,
2013-11-12 00:50:00,43.2,38.1,30.15,SSE,168,0.0,0.0,82,0.00,,SKC,0.00,VWS V13.00,2013-11-12 06:50:00,
2013-11-12 00:55:00,43.3,38.2,30.15,SSE,168,0.0,0.0,82,0.00,,SKC,0.00,VWS V13.00,2013-11-12 06:55:00,
2013-11-12 01:00:00,43.5,38.7,30.15,SSE,168,0.0,0.0,83,0.00,,SKC,0.00,VWS V13.00,2013-11-12 07:00:00,
2013-11-12 01:05:00,43.6,38.8,30.15,SSE,168,0.0,0.0,83,0.00,,SKC,0.00,VWS V13.00,2013-11-12 07:05:00,
2013-11-12 01:10:00,43.8,39.0,30.15,SSE,168,0.0,0.0,83,0.00,,SKC,0.00,VWS V13.00,2013-11-12 07:10:00,
2013-11-12 01:15:00,43.8,39.0,30.15,SSE,168,0.0,0.0,83,0.00,,SKC,0.00,VWS V13.00,2013-11-12 07:15:00,
2013-11-12 01:20:00,43.8,39.6,30.15,SSE,168,0.0,0.0,85,0.00,,SKC,0.00,VWS V13.00,2013-11-12 07:20:00,
2013-11-12 01:25:00,43.6,39.4,30.15,SSE,168,0.0,0.0,85,0.00,,SKC,0.00,VWS V13.00,2013-11-12 07:25:00,
2013-11-12 01:30:00,43.4,39.5,30.15,SSE,168,0.0,0.0,86,0.00,,SKC,0.00,VWS V13.00,2013-11-12 07:30:00,
2013-11-12 01:35:00,43.2,39.0,30.15,SSE,168,0.0,0.0,85,0.00,,SKC,0.00,VWS V13.00,2013-11-12 07:35:00,
2013-11-12 01:40:00,42.9,39.0,30.15,SSE,168,0.0,0.0,86,0.00,,SKC,0.00,VWS V13.00,2013-11-12 07:40:00,
2013-11-12 01:45:00,42.8,38.9,30.15,SSE,168,0.0,0.0,86,0.00,,SKC,0.00,VWS V13.00,2013-11-12 07:45:00,
2013-11-12 01:50:00,42.7,39.1,30.15,SSE,168,0.0,0.0,87,0.00,,SKC,0.00,VWS V13.00,2013-11-12 07:50:00,
2013-11-12 01:55:00,42.5,38.6,30.15,SSE,168,0.0,0.0,86,0.00,,SKC,0.00,VWS V13.00,2013-11-12 07:55:00,
2013-11-12 02:00:00,42.4,38.5,30.15,SSE,168,0.0,0.0,86,0.00,,SKC,0.00,VWS V13.00,2013-11-12 08:00:00,
2013-11-12 02:05:00,42.3,38.7,30.15,SSE,168,0.0,0.0,87,0.00,,SKC,0.00,VWS V13.00,2013-11-12 08:05:00,
2013-11-12 02:10:00,42.2,38.9,30.15,SSE,168,0.0,0.0,88,0.00,,SKC,0.00,VWS V13.00,2013-11-12 08:10:00,
2013-11-12 02:15:00,42.3,37.8,30.15,SSE,168,0.0,0.0,84,0.00,,SKC,0.00,VWS V13.00,2013-11-12 08:15:00,
2013-11-12 02:20:00,42.7,37.0,30.14,SSE,168,0.0,0.0,80,0.00,,SKC,0.00,VWS V13.00,2013-11-12 08:20:00,
2013-11-12 02:25:00,42.8,37.4,30.14,SSE,168,0.0,0.0,81,0.00,,SKC,0.00,VWS V13.00,2013-11-12 08:25:00,
2013-11-12 02:30:00,42.9,37.5,30.14,SSE,168,0.0,0.0,81,0.00,,SKC,0.00,VWS V13.00,2013-11-12 08:30:00,
2013-11-12 02:35:00,42.8,37.7,30.14,SSE,168,0.0,0.0,82,0.00,,SKC,0.00,VWS V13.00,2013-11-12 08:35:00,
2013-11-12 02:40:00,42.7,37.3,30.14,SSE,168,0.0,0.0,81,0.00,,SKC,0.00,VWS V13.00,2013-11-12 08:40:00,
2013-11-12 02:45:00,42.5,37.7,30.14,SSE,168,0.0,0.0,83,0.00,,SKC,0.00,VWS V13.00,2013-11-12 08:45:00,
2013-11-12 02:50:00,42.4,38.5,30.14,SSE,168,0.0,0.0,86,0.00,,SKC,0.00,VWS V13.00,2013-11-12 08:50:00,
2013-11-12 02:55:00,42.1,38.2,30.15,SSE,168,0.0,0.0,86,0.00,,SKC,0.00,VWS V13.00,2013-11-12 08:55:00,
2013-11-12 03:00:00,41.8,38.2,30.15,SSE,168,0.0,0.0,87,0.00,,SKC,0.00,VWS V13.00,2013-11-12 09:00:00,
2013-11-12 03:05:00,41.5,38.2,30.15,SSE,168,0.0,0.0,88,0.00,,SKC,0.00,VWS V13.00,2013-11-12 09:05:00,
2013-11-12 03:10:00,41.4,38.4,30.15,SSE,168,0.0,0.0,89,0.00,,SKC,0.00,VWS V13.00,2013-11-12 09:10:00,
2013-11-12 03:15:00,41.4,36.9,30.15,SSE,168,0.0,0.0,84,0.00,,SKC,0.00,VWS V13.00,2013-11-12 09:15:00,
2013-11-12 03:20:00,42.5,35.8,30.15,SSE,168,0.0,0.0,77,0.00,,SKC,0.00,VWS V13.00,2013-11-12 09:20:00,
2013-11-12 03:25:00,43.4,36.7,30.15,SSE,168,0.0,0.0,77,0.00,,SKC,0.00,VWS V13.00,2013-11-12 09:25:00,
2013-11-12 03:30:00,44.3,36.2,30.15,SSE,168,0.0,0.0,73,0.00,,SKC,0.00,VWS V13.00,2013-11-12 09:30:00,
2013-11-12 03:35:00,45.0,38.6,30.15,SSE,168,0.0,0.0,78,0.00,,SKC,0.00,VWS V13.00,2013-11-12 09:35:00,
2013-11-12 03:40:00,45.2,39.1,30.15,SSE,168,0.0,0.0,79,0.00,,SKC,0.00,VWS V13.00,2013-11-12 09:40:00,
2013-11-12 03:45:00,45.5,39.0,30.15,SSE,168,0.0,0.0,78,0.00,,SKC,0.00,VWS V13.00,2013-11-12 09:45:00,
2013-11-12 03:50:00,45.6,38.2,30.14,SSE,168,0.0,0.0,75,0.00,,SKC,0.00,VWS V13.00,2013-11-12 09:50:00,
2013-11-12 03:55:00,45.8,39.0,30.15,SSE,168,0.0,0.0,77,0.00,,SKC,0.00,VWS V13.00,2013-11-12 09:55:00,
2013-11-12 04:00:00,45.9,37.8,30.14,SSE,168,0.0,0.0,73,0.00,,SKC,0.00,VWS V13.00,2013-11-12 10:00:00,
2013-11-12 04:05:00,46.4,36.8,30.15,SSE,168,0.0,0.0,69,0.00,,SKC,0.00,VWS V13.00,2013-11-12 10:05:00,
2013-11-12 04:10:00,46.6,35.5,30.15,SSE,168,0.0,0.0,65,0.00,,SKC,0.00,VWS V13.00,2013-11-12 10:10:00,
2013-11-12 04:15:00,46.8,35.3,30.15,SSE,168,0.0,0.0,64,0.00,,SKC,0.00,VWS V13.00,2013-11-12 10:15:00,
2013-11-12 04:20:00,47.0,35.1,30.15,SSE,168,0.0,0.0,63,0.00,,SKC,0.00,VWS V13.00,2013-11-12 10:20:00,
2013-11-12 04:25:00,47.0,35.5,30.15,SSE,168,0.0,0.0,64,0.00,,SKC,0.00,VWS V13.00,2013-11-12 10:25:00,
2013-11-12 04:30:00,46.9,35.0,30.15,SSE,168,0.0,0.0,63,0.00,,SKC,0.00,VWS V13.00,2013-11-12 10:30:00,
2013-11-12 04:35:00,46.8,34.5,30.15,SSE,168,0.0,0.0,62,0.00,,SKC,0.00,VWS V13.00,2013-11-12 10:35:00,
2013-11-12 04:40:00,46.9,34.6,30.15,SSE,168,0.0,0.0,62,0.00,,SKC,0.00,VWS V13.00,2013-11-12 10:40:00,
2013-11-12 04:45:00,47.1,34.8,30.16,SSE,168,0.0,0.0,62,0.00,,SKC,0.00,VWS V13.00,2013-11-12 10:45:00,
2013-11-12 04:50:00,47.0,35.5,30.16,SSE,168,0.0,0.0,64,0.00,,SKC,0.00,VWS V13.00,2013-11-12 10:50:00,
2013-11-12 04:55:00,46.6,37.0,30.16,SSE,168,0.0,0.0,69,0.00,,SKC,0.00,VWS V13.00,2013-11-12 10:55:00,
2013-11-12 05:00:00,45.7,38.2,30.17,SSE,168,0.0,0.0,75,0.00,,SKC,0.00,VWS V13.00,2013-11-12 11:00:00,
2013-11-12 05:05:00,44.8,37.7,30.18,SSE,168,0.0,0.0,76,0.00,,SKC,0.00,VWS V13.00,2013-11-12 11:05:00,
2013-11-12 05:10:00,44.3,36.5,30.18,SSE,168,0.0,0.0,74,0.00,,SKC,0.00,VWS V13.00,2013-11-12 11:10:00,
2013-11-12 05:15:00,44.3,35.9,30.18,SSE,168,0.0,1.0,72,0.00,,SKC,0.00,VWS V13.00,2013-11-12 11:15:00,
2013-11-12 05:20:00,44.8,34.9,30.18,SSE,168,0.0,1.0,68,0.00,,SKC,0.00,VWS V13.00,2013-11-12 11:20:00,
2013-11-12 05:25:00,45.6,34.9,30.17,SSE,168,0.0,1.0,66,0.00,,SKC,0.00,VWS V13.00,2013-11-12 11:25:00,
2013-11-12 05:30:00,46.0,34.9,30.18,SSE,168,0.0,1.0,65,0.00,,SKC,0.00,VWS V13.00,2013-11-12 11:30:00,
2013-11-12 05:35:00,46.3,35.2,30.18,South,169,0.0,0.0,65,0.00,,SKC,0.00,VWS V13.00,2013-11-12 11:35:00,
2013-11-12 05:40:00,46.2,35.5,30.18,South,169,0.0,0.0,66,0.00,,SKC,0.00,VWS V13.00,2013-11-12 11:40:00,
2013-11-12 05:45:00,46.3,36.0,30.18,South,171,1.0,1.0,67,0.00,,SKC,0.00,VWS V13.00,2013-11-12 11:45:00,
2013-11-12 05:50:00,46.4,36.0,30.18,South,188,1.0,2.0,67,0.00,,SKC,0.00,VWS V13.00,2013-11-12 11:50:00,
2013-11-12 05:55:00,46.3,36.3,30.18,South,188,0.0,2.0,68,0.00,,SKC,0.00,VWS V13.00,2013-11-12 11:55:00,
2013-11-12 06:00:00,46.3,36.3,30.18,South,188,0.0,2.0,68,0.00,,SKC,0.00,VWS V13.00,2013-11-12 12:00:00,
2013-11-12 06:05:00,46.2,36.2,30.19,West,265,0.0,4.0,68,0.00,,SKC,0.00,VWS V13.00,2013-11-12 12:05:00,
2013-11-12 06:10:00,46.2,36.2,30.19,West,265,0.0,4.0,68,0.00,,SKC,0.00,VWS V13.00,2013-11-12 12:10:00,
2013-11-12 06:15:00,45.8,36.2,30.19,West,265,0.0,4.0,69,0.00,,SKC,0.00,VWS V13.00,2013-11-12 12:15:00,
2013-11-12 06:20:00,45.2,36.7,30.20,NW,321,2.0,6.0,72,0.00,,SKC,0.00,VWS V13.00,2013-11-12 12:20:00,
2013-11-12 06:25:00,45.6,37.5,30.20,NW,321,1.0,6.0,73,0.00,,SKC,0.00,VWS V13.00,2013-11-12 12:25:00,
2013-11-12 06:30:00,46.2,37.7,30.20,NNW,343,1.0,6.0,72,0.00,,SKC,0.00,VWS V13.00,2013-11-12 12:30:00,
2013-11-12 06:35:00,46.8,37.5,30.21,North,355,2.0,7.0,70,0.00,,SKC,0.00,VWS V13.00,2013-11-12 12:35:00,
2013-11-12 06:40:00,47.2,37.6,30.21,North,355,2.0,7.0,69,0.00,,SKC,0.00,VWS V13.00,2013-11-12 12:40:00,
2013-11-12 06:45:00,47.5,37.8,30.21,NNW,342,4.0,8.0,69,0.00,,SKC,0.00,VWS V13.00,2013-11-12 12:45:00,
2013-11-12 06:50:00,47.9,37.9,30.21,NNW,329,1.0,8.0,68,0.00,,SKC,0.00,VWS V13.00,2013-11-12 12:50:00,
2013-11-12 06:55:00,48.4,38.3,30.21,NNW,346,4.0,8.0,68,0.00,,SKC,0.00,VWS V13.00,2013-11-12 12:55:00,
2013-11-12 07:00:00,48.8,39.1,30.22,NNW,344,6.0,8.0,69,0.00,,SKC,0.00,VWS V13.00,2013-11-12 13:00:00,
2013-11-12 07:05:00,49.1,39.4,30.22,North,351,3.0,6.0,69,0.00,,SKC,0.00,VWS V13.00,2013-11-12 13:05:00,
2013-11-12 07:10:00,49.6,39.9,30.23,North,10,5.0,7.0,69,0.00,,SKC,0.00,VWS V13.00,2013-11-12 13:10:00,
2013-11-12 07:15:00,49.9,39.8,30.23,North,9,5.0,9.0,68,0.00,,SKC,0.00,VWS V13.00,2013-11-12 13:15:00,
2013-11-12 07:20:00,50.1,40.0,30.23,NE,41,6.0,10.0,68,0.00,,SKC,0.00,VWS V13.00,2013-11-12 13:20:00,
2013-11-12 07:25:00,50.0,40.2,30.23,North,355,3.0,10.0,69,0.00,,SKC,0.00,VWS V13.00,2013-11-12 13:25:00,
2013-11-12 07:30:00,49.9,40.9,30.23,North,11,4.0,10.0,71,0.00,,SKC,0.00,VWS V13.00,2013-11-12 13:30:00,
2013-11-12 07:35:00,50.1,41.4,30.24,NNE,20,4.0,9.0,72,0.00,,SKC,0.00,VWS V13.00,2013-11-12 13:35:00,
2013-11-12 07:40:00,50.5,41.8,30.23,NNE,12,5.0,9.0,72,0.00,,SKC,0.00,VWS V13.00,2013-11-12 13:40:00,
2013-11-12 07:45:00,50.9,42.2,30.23,North,10,6.0,11.0,72,0.00,,SKC,0.00,VWS V13.00,2013-11-12 13:45:00,
2013-11-12 07:50:00,51.4,42.7,30.24,NNE,17,7.0,13.0,72,0.00,,SKC,0.00,VWS V13.00,2013-11-12 13:50:00,
2013-11-12 07:55:00,51.6,42.9,30.24,North,360,6.0,18.0,72,0.00,,SKC,0.00,VWS V13.00,2013-11-12 13:55:00,
2013-11-12 07:59:00,51.9,43.2,30.24,NE,38,9.0,18.0,72,0.00,,SKC,0.00,VWS V13.00,2013-11-12 13:59:00,
2013-11-12 08:04:00,52.2,43.5,30.24,NNW,346,5.0,14.0,72,0.00,,SKC,0.00,VWS V13.00,2013-11-12 14:04:00,
2013-11-12 08:09:00,52.5,44.1,30.25,NNE,15,7.0,14.0,73,0.00,,SKC,0.00,VWS V13.00,2013-11-12 14:09:00,
2013-11-12 08:14:00,52.7,44.7,30.25,North,5,7.0,16.0,74,0.00,,SKC,0.00,VWS V13.00,2013-11-12 14:14:00,
2013-11-12 08:19:00,52.3,44.3,30.24,NNW,331,6.0,18.0,74,0.00,,SKC,0.00,VWS V13.00,2013-11-12 14:19:00,
2013-11-12 08:24:00,51.9,44.6,30.25,North,355,7.0,22.0,76,0.00,,SKC,0.00,VWS V13.00,2013-11-12 14:24:00,
2013-11-12 08:29:00,51.8,44.8,30.25,North,360,11.0,22.0,77,0.00,,SKC,0.00,VWS V13.00,2013-11-12 14:29:00,
2013-11-12 08:34:00,51.6,44.6,30.25,NNE,21,12.0,14.0,77,0.00,,SKC,0.00,VWS V13.00,2013-11-12 14:34:00,
2013-11-12 08:39:00,51.6,44.6,30.25,North,355,14.0,20.0,77,0.00,,SKC,0.00,VWS V13.00,2013-11-12 14:39:00,
2013-11-12 08:44:00,51.4,44.4,30.26,North,355,10.0,20.0,77,0.00,,SKC,0.00,VWS V13.00,2013-11-12 14:44:00,
2013-11-12 08:49:00,50.9,44.6,30.26,NNE,15,9.0,20.0,79,0.00,,SKC,0.00,VWS V13.00,2013-11-12 14:49:00,
2013-11-12 08:54:00,50.3,44.7,30.27,North,5,8.0,20.0,81,0.00,,SKC,0.00,VWS V13.00,2013-11-12 14:54:00,
2013-11-12 08:59:00,49.8,44.5,30.27,North,355,6.0,20.0,82,0.00,,SKC,0.00,VWS V13.00,2013-11-12 14:59:00,
2013-11-12 09:04:00,49.4,44.5,30.28,NNE,19,9.0,12.0,83,0.00,,SKC,0.00,VWS V13.00,2013-11-12 15:04:00,
2013-11-12 09:09:00,49.1,44.5,30.28,North,350,11.0,18.0,84,0.00,,SKC,0.00,VWS V13.00,2013-11-12 15:09:00,
2013-11-12 09:14:00,48.6,44.0,30.29,North,355,9.0,18.0,84,0.00,,SKC,0.00,VWS V13.00,2013-11-12 15:14:00,
2013-11-12 09:19:00,48.2,43.6,30.29,NNE,20,10.0,24.0,84,0.00,,SKC,0.00,VWS V13.00,2013-11-12 15:19:00,
2013-11-12 09:24:00,48.0,43.7,30.30,North,11,7.0,24.0,85,0.00,,SKC,0.00,VWS V13.00,2013-11-12 15:24:00,
2013-11-12 09:29:00,47.6,43.0,30.31,NNE,30,10.0,24.0,84,0.00,,SKC,0.00,VWS V13.00,2013-11-12 15:29:00,
2013-11-12 09:34:00,47.1,42.5,30.31,NNE,17,4.0,20.0,84,0.00,,SKC,0.00,VWS V13.00,2013-11-12 15:34:00,
2013-11-12 09:39:00,46.8,42.5,30.31,NNE,32,8.0,20.0,85,0.00,,SKC,0.00,VWS V13.00,2013-11-12 15:39:00,
2013-11-12 09:44:00,46.6,42.0,30.31,NNE,17,10.0,20.0,84,0.00,,SKC,0.00,VWS V13.00,2013-11-12 15:44:00,
2013-11-12 09:49:00,46.3,41.7,30.32,North,5,11.0,21.0,84,0.00,,SKC,0.00,VWS V13.00,2013-11-12 15:49:00,
2013-11-12 09:54:00,46.1,41.5,30.32,NNE,13,9.0,21.0,84,0.00,,SKC,0.00,VWS V13.00,2013-11-12 15:54:00,
2013-11-12 09:59:00,46.0,41.4,30.32,NNE,15,8.0,21.0,84,0.00,,SKC,0.00,VWS V13.00,2013-11-12 15:59:00,
2013-11-12 10:04:00,45.9,41.3,30.32,NNE,28,11.0,16.0,84,0.00,,SKC,0.00,VWS V13.00,2013-11-12 16:04:00,
2013-11-12 10:09:00,46.1,41.2,30.32,NNE,27,14.0,16.0,83,0.00,,SKC,0.00,VWS V13.00,2013-11-12 16:09:00,
2013-11-12 10:14:00,46.2,41.3,30.32,North,5,12.0,16.0,83,0.00,,SKC,0.00,VWS V13.00,2013-11-12 16:14:00,
2013-11-12 10:19:00,46.0,41.1,30.33,NNW,345,8.0,16.0,83,0.00,,SKC,0.00,VWS V13.00,2013-11-12 16:19:00,
2013-11-12 10:24:00,45.6,40.7,30.34,NNE,13,12.0,18.0,83,0.00,,SKC,0.00,VWS V13.00,2013-11-12 16:24:00,
2013-11-12 10:29:00,45.3,40.5,30.34,NNE,12,10.0,22.0,83,0.00,,SKC,0.00,VWS V13.00,2013-11-12 16:29:00,
2013-11-12 10:34:00,45.3,40.1,30.34,North,5,7.0,15.0,82,0.00,,SKC,0.00,VWS V13.00,2013-11-12 16:34:00,
2013-11-12 10:39:00,45.3,40.1,30.33,North,355,15.0,18.0,82,0.00,,SKC,0.00,VWS V13.00,2013-11-12 16:39:00,
2013-11-12 10:44:00,45.2,40.0,30.34,NNE,12,9.0,18.0,82,0.00,,SKC,0.00,VWS V13.00,2013-11-12 16:44:00,
2013-11-12 10:49:00,44.9,39.8,30.34,North,5,6.0,18.0,82,0.00,,SKC,0.00,VWS V13.00,2013-11-12 16:49:00,
2013-11-12 10:54:00,45.0,39.8,30.34,North,355,7.0,18.0,82,0.00,,SKC,0.00,VWS V13.00,2013-11-12 16:54:00,
2013-11-12 10:59:00,45.1,39.6,30.34,North,360,11.0,20.0,81,0.00,,SKC,0.00,VWS V13.00,2013-11-12 16:59:00,
2013-11-12 11:04:00,45.1,39.6,30.34,NNW,344,11.0,14.0,81,0.00,,SKC,0.00,VWS V13.00,2013-11-12 17:04:00,
2013-11-12 11:09:00,45.1,39.3,30.34,NW,315,13.0,19.0,80,0.00,,SKC,0.00,VWS V13.00,2013-11-12 17:09:00,
2013-11-12 11:14:00,45.4,39.3,30.34,NNW,331,7.0,19.0,79,0.00,,SKC,0.00,VWS V13.00,2013-11-12 17:14:00,
2013-11-12 11:19:00,45.6,38.8,30.35,North,360,20.0,20.0,77,0.00,,SKC,0.00,VWS V13.00,2013-11-12 17:19:00,
2013-11-12 11:24:00,45.9,39.1,30.34,NNE,23,8.0,24.0,77,0.00,,SKC,0.00,VWS V13.00,2013-11-12 17:24:00,
2013-11-12 11:29:00,46.1,38.3,30.34,NE,38,10.0,24.0,74,0.00,,SKC,0.00,VWS V13.00,2013-11-12 17:29:00,
2013-11-12 11:34:00,46.0,37.5,30.34,NNE,23,13.0,20.0,72,0.00,,SKC,0.00,VWS V13.00,2013-11-12 17:34:00,
2013-11-12 11:39:00,46.1,37.9,30.34,NNE,16,14.0,20.0,73,0.00,,SKC,0.00,VWS V13.00,2013-11-12 17:39:00,
2013-11-12 11:44:00,45.8,37.7,30.33,NNE,24,11.0,20.0,73,0.00,,SKC,0.00,VWS V13.00,2013-11-12 17:44:00,
2013-11-12 11:49:00,45.8,37.3,30.33,North,355,8.0,20.0,72,0.00,,SKC,0.00,VWS V13.00,2013-11-12 17:49:00,
2013-11-12 11:54:00,45.5,36.7,30.33,NNE,29,9.0,23.0,71,0.00,,SKC,0.00,VWS V13.00,2013-11-12 17:54:00,
2013-11-12 11:59:00,45.6,36.8,30.33,NNE,13,10.0,23.0,71,0.00,,SKC,0.00,VWS V13.00,2013-11-12 17:59:00,
2013-11-12 12:04:00,45.3,36.5,30.33,North,11,9.0,15.0,71,0.00,,SKC,0.00,VWS V13.00,2013-11-12 18:04:00,
2013-11-12 12:09:00,45.2,36.4,30.33,NNW,346,8.0,19.0,71,0.00,,SKC,0.00,VWS V13.00,2013-11-12 18:09:00,
2013-11-12 12:14:00,45.1,35.9,30.33,NNE,13,11.0,24.0,70,0.00,,SKC,0.00,VWS V13.00,2013-11-12 18:14:00,
2013-11-12 12:19:00,45.1,35.9,30.33,NNE,18,10.0,24.0,70,0.00,,SKC,0.00,VWS V13.00,2013-11-12 18:19:00,
2013-11-12 12:24:00,44.9,35.7,30.33,NNW,338,16.0,24.0,70,0.00,,SKC,0.00,VWS V13.00,2013-11-12 18:24:00,
2013-11-12 12:29:00,44.9,36.1,30.33,NE,42,6.0,24.0,71,0.00,,SKC,0.00,VWS V13.00,2013-11-12 18:29:00,
2013-11-12 12:34:00,44.7,35.9,30.34,NW,321,19.0,19.0,71,0.00,,SKC,0.00,VWS V13.00,2013-11-12 18:34:00,
2013-11-12 12:39:00,44.3,35.5,30.33,NE,34,14.0,19.0,71,0.00,,SKC,0.00,VWS V13.00,2013-11-12 18:39:00,
2013-11-12 12:44:00,43.9,35.1,30.34,NNW,329,8.0,24.0,71,0.00,,SKC,0.00,VWS V13.00,2013-11-12 18:44:00,
2013-11-12 12:49:00,43.2,34.8,30.34,North,349,11.0,24.0,72,0.00,,SKC,0.00,VWS V13.00,2013-11-12 18:49:00,
2013-11-12 12:54:00,42.8,34.8,30.34,North,5,11.0,24.0,73,0.00,,SKC,0.00,VWS V13.00,2013-11-12 18:54:00,
2013-11-12 12:59:00,42.8,34.4,30.35,NNE,12,9.0,27.0,72,0.00,,SKC,0.00,VWS V13.00,2013-11-12 18:59:00,
2013-11-12 13:04:00,42.4,34.0,30.35,North,11,5.0,15.0,72,0.00,,SKC,0.00,VWS V13.00,2013-11-12 19:04:00,
2013-11-12 13:09:00,42.6,33.9,30.35,NNE,20,14.0,24.0,71,0.00,,SKC,0.00,VWS V13.00,2013-11-12 19:09:00,
2013-11-12 13:14:00,42.7,34.0,30.35,North,355,11.0,24.0,71,0.00,,SKC,0.00,VWS V13.00,2013-11-12 19:14:00,
2013-11-12 13:19:00,43.4,33.6,30.35,NE,43,13.0,24.0,68,0.00,,SKC,0.00,VWS V13.00,2013-11-12 19:19:00,
2013-11-12 13:24:00,43.7,33.8,30.35,North,360,15.0,24.0,68,0.00,,SKC,0.00,VWS V13.00,2013-11-12 19:24:00,
2013-11-12 13:29:00,44.2,34.7,30.35,NNE,26,18.0,24.0,69,0.00,,SKC,0.00,VWS V13.00,2013-11-12 19:29:00,
2013-11-12 13:34:00,44.1,32.7,30.35,NNE,26,13.0,19.0,64,0.00,,SKC,0.00,VWS V13.00,2013-11-12 19:34:00,
2013-11-12 13:39:00,43.9,31.7,30.35,NNW,347,19.0,27.0,62,0.00,,SKC,0.00,VWS V13.00,2013-11-12 19:39:00,
2013-11-12 13:44:00,43.9,32.1,30.36,North,360,14.0,27.0,63,0.00,,SKC,0.00,VWS V13.00,2013-11-12 19:44:00,
2013-11-12 13:49:00,43.9,32.5,30.36,NNE,12,9.0,27.0,64,0.00,,SKC,0.00,VWS V13.00,2013-11-12 19:49:00,
2013-11-12 13:53:00,44.0,32.2,30.36,NNE,13,9.0,27.0,63,0.00,,SKC,0.00,VWS V13.00,2013-11-12 19:53:00,
2013-11-12 13:58:00,44.0,31.4,30.36,NE,34,7.0,27.0,61,0.00,,SKC,0.00,VWS V13.00,2013-11-12 19:58:00,
2013-11-12 14:03:00,44.2,30.8,30.36,NNE,17,10.0,20.0,59,0.00,,SKC,0.00,VWS V13.00,2013-11-12 20:03:00,
2013-11-12 14:08:00,44.5,31.5,30.36,NNE,19,13.0,21.0,60,0.00,,SKC,0.00,VWS V13.00,2013-11-12 20:08:00,
2013-11-12 14:13:00,44.3,29.2,30.36,NNW,331,15.0,21.0,55,0.00,,SKC,0.00,VWS V13.00,2013-11-12 20:13:00,
2013-11-12 14:18:00,44.0,28.9,30.36,North,5,10.0,21.0,55,0.00,,SKC,0.00,VWS V13.00,2013-11-12 20:18:00,
2013-11-12 14:23:00,43.9,28.4,30.36,North,5,12.0,23.0,54,0.00,,SKC,0.00,VWS V13.00,2013-11-12 20:23:00,
2013-11-12 14:28:00,43.7,28.2,30.36,NE,42,13.0,23.0,54,0.00,,SKC,0.00,VWS V13.00,2013-11-12 20:28:00,
2013-11-12 14:33:00,43.8,27.8,30.37,NNE,17,8.0,22.0,53,0.00,,SKC,0.00,VWS V13.00,2013-11-12 20:33:00,
2013-11-12 14:38:00,43.6,27.6,30.37,NNE,13,11.0,22.0,53,0.00,,SKC,0.00,VWS V13.00,2013-11-12 20:38:00,
2013-11-12 14:43:00,43.7,27.2,30.37,North,5,12.0,22.0,52,0.00,,SKC,0.00,VWS V13.00,2013-11-12 20:43:00,
2013-11-12 14:48:00,43.7,27.2,30.37,NNE,18,9.0,24.0,52,0.00,,SKC,0.00,VWS V13.00,2013-11-12 20:48:00,
2013-11-12 14:53:00,43.5,26.1,30.37,NNE,29,18.0,28.0,50,0.00,,SKC,0.00,VWS V13.00,2013-11-12 20:53:00,
2013-11-12 14:58:00,43.2,26.3,30.38,NE,40,11.0,28.0,51,0.00,,SKC,0.00,VWS V13.00,2013-11-12 20:58:00,
2013-11-12 15:03:00,42.9,26.0,30.37,NNE,15,11.0,23.0,51,0.00,,SKC,0.00,VWS V13.00,2013-11-12 21:03:00,
2013-11-12 15:08:00,42.9,27.0,30.38,North,9,6.0,23.0,53,0.00,,SKC,0.00,VWS V13.00,2013-11-12 21:08:00,
2013-11-12 15:13:00,43.0,26.1,30.38,NNE,28,18.0,23.0,51,0.00,,SKC,0.00,VWS V13.00,2013-11-12 21:13:00,
2013-11-12 15:18:00,42.8,25.9,30.39,NNE,14,15.0,23.0,51,0.00,,SKC,0.00,VWS V13.00,2013-11-12 21:18:00,
2013-11-12 15:23:00,42.6,25.3,30.39,NE,38,15.0,23.0,50,0.00,,SKC,0.00,VWS V13.00,2013-11-12 21:23:00,
2013-11-12 15:28:00,42.5,26.1,30.39,NNE,19,6.0,23.0,52,0.00,,SKC,0.00,VWS V13.00,2013-11-12 21:28:00,
2013-11-12 15:33:00,42.1,24.8,30.40,North,355,10.0,15.0,50,0.00,,SKC,0.00,VWS V13.00,2013-11-12 21:33:00,
2013-11-12 15:38:00,41.6,24.8,30.40,NNE,26,12.0,16.0,51,0.00,,SKC,0.00,VWS V13.00,2013-11-12 21:38:00,
2013-11-12 15:43:00,41.3,24.5,30.40,NNE,21,9.0,26.0,51,0.00,,SKC,0.00,VWS V13.00,2013-11-12 21:43:00,
2013-11-12 15:48:00,41.1,23.9,30.40,NE,52,13.0,26.0,50,0.00,,SKC,0.00,VWS V13.00,2013-11-12 21:48:00,
2013-11-12 15:53:00,41.0,23.8,30.40,North,5,10.0,26.0,50,0.00,,SKC,0.00,VWS V13.00,2013-11-12 21:53:00,
2013-11-12 15:58:00,41.0,23.8,30.40,NNE,18,8.0,26.0,50,0.00,,SKC,0.00,VWS V13.00,2013-11-12 21:58:00,
2013-11-12 16:03:00,40.8,23.1,30.40,NE,44,18.0,20.0,49,0.00,,SKC,0.00,VWS V13.00,2013-11-12 22:03:00,
2013-11-12 16:08:00,40.7,22.5,30.40,NNE,17,10.0,20.0,48,0.00,,SKC,0.00,VWS V13.00,2013-11-12 22:08:00,
2013-11-12 16:13:00,40.5,22.4,30.40,NNE,33,9.0,20.0,48,0.00,,SKC,0.00,VWS V13.00,2013-11-12 22:13:00,
2013-11-12 16:18:00,40.4,22.3,30.40,NNE,15,9.0,20.0,48,0.00,,SKC,0.00,VWS V13.00,2013-11-12 22:18:00,
2013-11-12 16:23:00,40.1,22.5,30.40,NE,39,10.0,20.0,49,0.00,,SKC,0.00,VWS V13.00,2013-11-12 22:23:00,
2013-11-12 16:28:00,39.8,21.7,30.40,NNE,22,5.0,20.0,48,0.00,,SKC,0.00,VWS V13.00,2013-11-12 22:28:00,
2013-11-12 16:33:00,39.6,21.5,30.40,North,9,6.0,12.0,48,0.00,,SKC,0.00,VWS V13.00,2013-11-12 22:33:00,
2013-11-12 16:38:00,39.4,21.4,30.40,NE,42,9.0,14.0,48,0.00,,SKC,0.00,VWS V13.00,2013-11-12 22:38:00,
2013-11-12 16:43:00,39.3,20.8,30.41,NNE,22,8.0,15.0,47,0.00,,SKC,0.00,VWS V13.00,2013-11-12 22:43:00,
2013-11-12 16:48:00,39.2,20.2,30.41,NNE,32,13.0,15.0,46,0.00,,SKC,0.00,VWS V13.00,2013-11-12 22:48:00,
2013-11-12 16:53:00,39.0,20.0,30.41,NE,34,5.0,15.0,46,0.00,,SKC,0.00,VWS V13.00,2013-11-12 22:53:00,
2013-11-12 16:58:00,39.0,19.5,30.41,NNE,25,8.0,20.0,45,0.00,,SKC,0.00,VWS V13.00,2013-11-12 22:58:00,
2013-11-12 17:03:00,39.0,19.5,30.42,NNE,28,7.0,16.0,45,0.00,,SKC,0.00,VWS V13.00,2013-11-12 23:03:00,
2013-11-12 17:08:00,38.9,19.4,30.42,NE,40,7.0,22.0,45,0.00,,SKC,0.00,VWS V13.00,2013-11-12 23:08:00,
2013-11-12 17:13:00,38.6,19.1,30.42,North,11,9.0,22.0,45,0.00,,SKC,0.00,VWS V13.00,2013-11-12 23:13:00,
2013-11-12 17:18:00,38.6,19.1,30.42,NE,35,6.0,22.0,45,0.00,,SKC,0.00,VWS V13.00,2013-11-12 23:18:00,
2013-11-12 17:23:00,38.3,19.4,30.43,North,11,4.0,22.0,46,0.00,,SKC,0.00,VWS V13.00,2013-11-12 23:23:00,
2013-11-12 17:28:00,38.0,19.1,30.43,North,360,9.0,22.0,46,0.00,,SKC,0.00,VWS V13.00,2013-11-12 23:28:00,
2013-11-12 17:33:00,37.9,19.0,30.43,NE,42,7.0,12.0,46,0.00,,SKC,0.00,VWS V13.00,2013-11-12 23:33:00,
2013-11-12 17:38:00,37.9,18.0,30.44,NE,51,14.0,18.0,44,0.00,,SKC,0.00,VWS V13.00,2013-11-12 23:38:00,
2013-11-12 17:43:00,37.9,18.5,30.44,NE,53,8.0,18.0,45,0.00,,SKC,0.00,VWS V13.00,2013-11-12 23:43:00,
2013-11-12 17:48:00,37.7,18.3,30.44,NE,41,6.0,18.0,45,0.00,,SKC,0.00,VWS V13.00,2013-11-12 23:48:00,
2013-11-12 17:53:00,37.5,18.1,30.45,NNE,20,4.0,18.0,45,0.00,,SKC,0.00,VWS V13.00,2013-11-12 23:53:00,
2013-11-12 17:58:00,37.3,18.4,30.45,NNE,16,6.0,18.0,46,0.00,,SKC,0.00,VWS V13.00,2013-11-12 23:58:00,
2013-11-12 18:03:00,37.3,18.4,30.45,North,11,10.0,12.0,46,0.00,,SKC,0.00,VWS V13.00,2013-11-13 00:03:00,
2013-11-12 18:08:00,37.1,17.7,30.45,NNE,15,6.0,18.0,45,0.00,,SKC,0.00,VWS V13.00,2013-11-13 00:08:00,
2013-11-12 18:13:00,37.1,18.2,30.45,NE,42,16.0,18.0,46,0.00,,SKC,0.00,VWS V13.00,2013-11-13 00:13:00,
2013-11-12 18:18:00,37.1,18.2,30.45,NNE,15,12.0,19.0,46,0.00,,SKC,0.00,VWS V13.00,2013-11-13 00:18:00,
2013-11-12 18:23:00,37.0,18.2,30.45,NE,44,11.0,19.0,46,0.00,,SKC,0.00,VWS V13.00,2013-11-13 00:23:00,
2013-11-12 18:28:00,36.8,18.0,30.45,NE,40,12.0,19.0,46,0.00,,SKC,0.00,VWS V13.00,2013-11-13 00:28:00,
2013-11-12 18:33:00,36.9,18.1,30.45,NNE,17,11.0,18.0,46,0.00,,SKC,0.00,VWS V13.00,2013-11-13 00:33:00,
2013-11-12 18:38:00,37.0,17.6,30.45,NNE,18,13.0,24.0,45,0.00,,SKC,0.00,VWS V13.00,2013-11-13 00:38:00,
2013-11-12 18:43:00,36.8,17.5,30.46,NE,42,22.0,24.0,45,0.00,,SKC,0.00,VWS V13.00,2013-11-13 00:43:00,
2013-11-12 18:48:00,37.0,17.1,30.46,NNE,22,12.0,24.0,44,0.00,,SKC,0.00,VWS V13.00,2013-11-13 00:48:00,
2013-11-12 18:53:00,36.8,17.5,30.46,NNE,33,10.0,24.0,45,0.00,,SKC,0.00,VWS V13.00,2013-11-13 00:53:00,
2013-11-12 18:58:00,36.8,17.5,30.46,NE,36,14.0,24.0,45,0.00,,SKC,0.00,VWS V13.00,2013-11-13 00:58:00,
2013-11-12 19:03:00,36.6,17.8,30.47,NNE,22,3.0,9.0,46,0.00,,SKC,0.00,VWS V13.00,2013-11-13 01:03:00,
2013-11-12 19:08:00,36.3,17.5,30.47,NE,39,8.0,13.0,46,0.00,,SKC,0.00,VWS V13.00,2013-11-13 01:08:00,
2013-11-12 19:13:00,36.1,17.8,30.47,North,10,2.0,13.0,47,0.00,,SKC,0.00,VWS V13.00,2013-11-13 01:13:00,
2013-11-12 19:18:00,35.9,18.1,30.47,NNE,15,10.0,13.0,48,0.00,,SKC,0.00,VWS V13.00,2013-11-13 01:18:00,
2013-11-12 19:23:00,35.9,17.6,30.47,NNE,32,13.0,18.0,47,0.00,,SKC,0.00,VWS V13.00,2013-11-13 01:23:00,
2013-11-12 19:28:00,36.1,17.3,30.47,NNE,24,8.0,18.0,46,0.00,,SKC,0.00,VWS V13.00,2013-11-13 01:28:00,
2013-11-12 19:33:00,36.0,17.7,30.48,North,360,12.0,18.0,47,0.00,,SKC,0.00,VWS V13.00,2013-11-13 01:33:00,
2013-11-12 19:38:00,36.1,17.8,30.48,North,360,10.0,22.0,47,0.00,,SKC,0.00,VWS V13.00,2013-11-13 01:38:00,
2013-11-12 19:43:00,36.0,17.7,30.48,NE,45,16.0,22.0,47,0.00,,SKC,0.00,VWS V13.00,2013-11-13 01:43:00,
2013-11-12 19:48:00,35.9,17.6,30.48,NNE,26,6.0,22.0,47,0.00,,SKC,0.00,VWS V13.00,2013-11-13 01:48:00,
2013-11-12 19:53:00,35.9,18.1,30.48,NE,48,7.0,22.0,48,0.00,,SKC,0.00,VWS V13.00,2013-11-13 01:53:00,
2013-11-12 19:58:00,35.6,18.3,30.49,NE,51,13.0,22.0,49,0.00,,SKC,0.00,VWS V13.00,2013-11-13 01:58:00,
2013-11-12 20:03:00,35.6,18.3,30.49,NNE,24,9.0,15.0,49,0.00,,SKC,0.00,VWS V13.00,2013-11-13 02:03:00,
2013-11-12 20:08:00,35.5,18.2,30.49,NNE,15,5.0,21.0,49,0.00,,SKC,0.00,VWS V13.00,2013-11-13 02:08:00,
2013-11-12 20:13:00,35.5,18.2,30.49,NNE,28,5.0,21.0,49,0.00,,SKC,0.00,VWS V13.00,2013-11-13 02:13:00,
2013-11-12 20:18:00,35.3,18.1,30.49,NNE,17,10.0,21.0,49,0.00,,SKC,0.00,VWS V13.00,2013-11-13 02:18:00,
2013-11-12 20:23:00,35.2,18.0,30.49,NE,50,8.0,21.0,49,0.00,,SKC,0.00,VWS V13.00,2013-11-13 02:23:00,
2013-11-12 20:28:00,35.0,17.8,30.49,NE,44,7.0,21.0,49,0.00,,SKC,0.00,VWS V13.00,2013-11-13 02:28:00,
2013-11-12 20:33:00,35.0,17.8,30.49,NE,51,10.0,15.0,49,0.00,,SKC,0.00,VWS V13.00,2013-11-13 02:33:00,
2013-11-12 20:38:00,35.0,16.8,30.49,ENE,57,13.0,16.0,47,0.00,,SKC,0.00,VWS V13.00,2013-11-13 02:38:00,
2013-11-12 20:43:00,35.0,16.3,30.50,NE,45,13.0,21.0,46,0.00,,SKC,0.00,VWS V13.00,2013-11-13 02:43:00,
2013-11-12 20:48:00,35.0,16.3,30.50,NNE,17,13.0,21.0,46,0.00,,SKC,0.00,VWS V13.00,2013-11-13 02:48:00,
2013-11-12 20:53:00,35.0,15.8,30.50,ENE,59,14.0,23.0,45,0.00,,SKC,0.00,VWS V13.00,2013-11-13 02:53:00,
2013-11-12 20:58:00,34.8,15.6,30.50,NNE,30,5.0,23.0,45,0.00,,SKC,0.00,VWS V13.00,2013-11-13 02:58:00,
2013-11-12 21:03:00,34.6,16.0,30.50,NE,51,9.0,16.0,46,0.00,,SKC,0.00,VWS V13.00,2013-11-13 03:03:00,
2013-11-12 21:08:00,34.6,16.0,30.50,ENE,62,14.0,19.0,46,0.00,,SKC,0.00,VWS V13.00,2013-11-13 03:08:00,
2013-11-12 21:13:00,34.5,15.9,30.51,NE,45,14.0,22.0,46,0.00,,SKC,0.00,VWS V13.00,2013-11-13 03:13:00,
2013-11-12 21:18:00,34.3,15.7,30.51,NE,39,7.0,22.0,46,0.00,,SKC,0.00,VWS V13.00,2013-11-13 03:18:00,
2013-11-12 21:23:00,34.0,15.4,30.51,NE,34,9.0,22.0,46,0.00,,SKC,0.00,VWS V13.00,2013-11-13 03:23:00,
2013-11-12 21:28:00,34.0,15.9,30.51,NE,38,10.0,22.0,47,0.00,,SKC,0.00,VWS V13.00,2013-11-13 03:28:00,
2013-11-12 21:33:00,33.7,15.6,30.51,NE,52,8.0,11.0,47,0.00,,SKC,0.00,VWS V13.00,2013-11-13 03:33:00,
2013-11-12 21:38:00,33.6,16.0,30.51,NE,39,10.0,16.0,48,0.00,,SKC,0.00,VWS V13.00,2013-11-13 03:38:00,
2013-11-12 21:43:00,33.5,15.4,30.51,NE,40,9.0,16.0,47,0.00,,SKC,0.00,VWS V13.00,2013-11-13 03:43:00,
2013-11-12 21:48:00,33.3,16.2,30.51,NE,45,7.0,16.0,49,0.00,,SKC,0.00,VWS V13.00,2013-11-13 03:48:00,
2013-11-12 21:53:00,32.9,16.3,30.51,NE,37,9.0,16.0,50,0.00,,SKC,0.00,VWS V13.00,2013-11-13 03:53:00,
2013-11-12 21:58:00,33.0,15.9,30.52,NNE,31,16.0,21.0,49,0.00,,SKC,0.00,VWS V13.00,2013-11-13 03:58:00,
2013-11-12 22:03:00,33.2,15.6,30.52,NNE,33,9.0,13.0,48,0.00,,SKC,0.00,VWS V13.00,2013-11-13 04:03:00,
2013-11-12 22:08:00,33.1,16.0,30.52,NNE,17,6.0,13.0,49,0.00,,SKC,0.00,VWS V13.00,2013-11-13 04:08:00,
2013-11-12 22:13:00,32.9,16.3,30.52,NE,42,12.0,18.0,50,0.00,,SKC,0.00,VWS V13.00,2013-11-13 04:13:00,
2013-11-12 22:18:00,33.0,16.4,30.52,NE,53,12.0,21.0,50,0.00,,SKC,0.00,VWS V13.00,2013-11-13 04:18:00,
2013-11-12 22:23:00,33.0,16.4,30.52,NE,56,11.0,21.0,50,0.00,,SKC,0.00,VWS V13.00,2013-11-13 04:23:00,
2013-11-12 22:28:00,32.8,16.7,30.52,NNE,22,9.0,21.0,51,0.00,,SKC,0.00,VWS V13.00,2013-11-13 04:28:00,
2013-11-12 22:33:00,32.7,16.6,30.52,ENE,71,14.0,20.0,51,0.00,,SKC,0.00,VWS V13.00,2013-11-13 04:33:00,
2013-11-12 22:38:00,32.8,16.2,30.52,NE,40,8.0,22.0,50,0.00,,SKC,0.00,VWS V13.00,2013-11-13 04:38:00,
2013-11-12 22:43:00,32.7,17.0,30.51,NE,44,10.0,22.0,52,0.00,,SKC,0.00,VWS V13.00,2013-11-13 04:43:00,
2013-11-12 22:48:00,32.5,16.9,30.51,NE,34,10.0,22.0,52,0.00,,SKC,0.00,VWS V13.00,2013-11-13 04:48:00,
2013-11-12 22:53:00,32.4,16.8,30.52,NE,49,8.0,22.0,52,0.00,,SKC,0.00,VWS V13.00,2013-11-13 04:53:00,
2013-11-12 22:57:00,32.2,17.0,30.51,NE,42,19.0,22.0,53,0.00,,SKC,0.00,VWS V13.00,2013-11-13 04:57:00,
2013-11-12 23:01:00,32.3,16.7,30.51,NNE,30,10.0,22.0,52,0.00,,SKC,0.00,VWS V13.00,2013-11-13 05:01:00,
2013-11-12 23:06:00,32.0,16.8,30.52,NE,51,7.0,11.0,53,0.00,,SKC,0.00,VWS V13.00,2013-11-13 05:06:00,
2013-11-12 23:11:00,31.8,16.6,30.51,ENE,57,8.0,11.0,53,0.00,,SKC,0.00,VWS V13.00,2013-11-13 05:11:00,
2013-11-12 23:16:00,31.7,17.0,30.52,NE,43,7.0,15.0,54,0.00,,SKC,0.00,VWS V13.00,2013-11-13 05:16:00,
2013-11-12 23:21:00,31.6,17.3,30.52,ENE,59,6.0,15.0,55,0.00,,SKC,0.00,VWS V13.00,2013-11-13 05:21:00,
2013-11-12 23:26:00,31.5,17.2,30.52,NNE,24,8.0,15.0,55,0.00,,SKC,0.00,VWS V13.00,2013-11-13 05:26:00,
2013-11-12 23:31:00,31.4,17.1,30.52,NE,53,7.0,15.0,55,0.00,,SKC,0.00,VWS V13.00,2013-11-13 05:31:00,
2013-11-12 23:36:00,31.2,16.9,30.52,NE,47,8.0,9.0,55,0.00,,SKC,0.00,VWS V13.00,2013-11-13 05:36:00,
2013-11-12 23:41:00,31.1,16.8,30.52,NE,51,7.0,12.0,55,0.00,,SKC,0.00,VWS V13.00,2013-11-13 05:41:00,
2013-11-12 23:46:00,31.1,17.2,30.52,NE,53,5.0,12.0,56,0.00,,SKC,0.00,VWS V13.00,2013-11-13 05:46:00,
2013-11-12 23:51:00,30.9,17.1,30.52,NE,50,6.0,12.0,56,0.00,,SKC,0.00,VWS V13.00,2013-11-13 05:51:00,
2013-11-12 23:56:00,30.6,17.2,30.52,NE,43,6.0,12.0,57,0.00,,SKC,0.00,VWS V13.00,2013-11-13 05:56:00,